Niquelandia, Brazil
Current Conditions -  °F | °C
As of 7:00 PM on Tuesday 25 Nov 2014 (Local Time) from SBBR Reporting Station
Thunderstorm Thunderstorm  
Wind Chill: 68°   Ceiling: 200
Heat Index: 68°   Visibility: 0.62mi
Dew Point: 64°   Wind: 7mph
Humidity: 88%   Direction: 30°NNE
Pressure: 30"   Gusts: NA
Location:  14.47°S, 48.46°W
Report Text: SBBR 252100Z 03006KT 1000 R11R/P2000 R29L/P2000 R11L////// R29R/1900 -TSRA BR BKN002 BKN012 FEW040CB 20/18 Q1016
Loading
Personal Weather Stations






























Interactive Weather Map New forecast layout! Learn more

10-Day Weather Forecast

Advertisements
Track Severe Weather on mobile